White Castle, LA (70788)

11:30 AM CDT on October 02, 2014 (GMT -0500)
Axiall-Plaquemine | Change Station
CLOSE
Current Station
Personal Weather Station
Location: Plaquemine, LA
Elevation: 46 ft
Nearby Weather Stations

Elev 46 ft 30.27 °N, 91.18 °W | Updated 5 seconds ago

Overcast
Overcast
85.8 °F
Feels Like 99 °F
N
3.0
Wind Variable Wind from SSE
Gusts 12.0 mph

Today
High -- | Low -- °F
--% Chance of Precip.
Yesterday
High -- | Low -- °F
Precip. -- in
6:58 AM 6:48 PM
First Quarter, 60% visible
Pressure 29.98 in
Visibility 10.0 miles
Clouds Mostly Cloudy 2100 ft
Mostly Cloudy 2800 ft
Mostly Cloudy 4200 ft
Heat Index 99 °F
Dew Point 79 °F
Humidity 80%
Rainfall 0.00 in
Snow Depth Not available.
UV 4 out of 12
Pollen 7.10 out of 12
Air Quality Not available.
Flu Activity Not available.
METAR KL38 021615Z AUTO 16007KT 10SM BKN021 BKN028 BKN042 30/27 A2998 RMK AO2 T03000269

More Conditions Fewer Conditions

Pressure 29.98 in
Visibility 10.0 miles
Clouds Mostly Cloudy 2100 ft
Mostly Cloudy 2800 ft
Mostly Cloudy 4200 ft
Heat Index 99 °F
Dew Point 79 °F
Humidity 80%
Rainfall 0.00 in
Snow Depth Not available.
UV 4 out of 12
Pollen 7.10 out of 12
Air Quality Not available.
Flu Activity Not available.
METAR KL38 021615Z AUTO 16007KT 10SM BKN021 BKN028 BKN042 30/27 A2998 RMK AO2 T03000269

More Conditions Fewer Conditions

10-Day Weather Forecast

Almanac

Astronomy

Oct. 02, 2014 Rise Set
Actual Time 6:58 AM CDT 6:48 PM CDT
Civil Twilight 6:34 AM CDT 7:12 PM CDT
Nautical Twilight 6:06 AM CDT 7:40 PM CDT
Astronomical Twilight 5:39 AM CDT 8:08 PM CDT
Moon 2:33 PM CDT 12:39 AM CDT
Length of Visible Light 12h 37m
Length of Day
11h 50m
Tomorrow will be 1m 48s shorter.
First Quarter, 60% of the Moon is Illuminated
Today
First Quarter
Oct 8
Full
Oct 15
Last Quarter
Oct 23
New
Oct 30
First Quarter

Today's Extremes

State Highs State Lows

Community

WunderPhotos

Upload Photos

1,758,290 photos uploaded!

WunderBlogs® & News

Nearby

Snow Depth

Station Depth Elevation
No new snow has been reported.

Earthquake Activity

City Distance Mag. Time & Date
No recent earthquake activity has been reported nearby.
Minimum magnitude displayed is 2.5.

Coastal Water Temperatures

Place Temperature
No Stations Reporting

Nearby Weather Stations